sensor_id;sensor_type;location;lat;lon;timestamp;pressure;altitude;pressure_sealevel;temperature;humidity
65546;BME280;52177;55.968;37.498;2023-02-15T00:00:08;100056.00;;;-2.09;71.68
65546;BME280;52177;55.968;37.498;2023-02-15T00:00:40;100055.25;;;-2.12;71.71
65546;BME280;52177;55.968;37.498;2023-02-15T00:01:11;100059.63;;;-2.12;71.67
65546;BME280;52177;55.968;37.498;2023-02-15T00:01:42;100059.72;;;-2.14;71.73
65546;BME280;52177;55.968;37.498;2023-02-15T00:02:13;100056.34;;;-2.16;71.82
65546;BME280;52177;55.968;37.498;2023-02-15T00:02:43;100050.28;;;-2.16;71.86
65546;BME280;52177;55.968;37.498;2023-02-15T00:03:15;100058.97;;;-2.16;72.04
65546;BME280;52177;55.968;37.498;2023-02-15T00:03:50;100053.66;;;-2.14;71.80
65546;BME280;52177;55.968;37.498;2023-02-15T00:04:22;100051.13;;;-2.16;71.91
65546;BME280;52177;55.968;37.498;2023-02-15T00:04:53;100050.28;;;-2.16;71.95
65546;BME280;52177;55.968;37.498;2023-02-15T00:05:26;100055.44;;;-2.15;71.74
65546;BME280;52177;55.968;37.498;2023-02-15T00:05:57;100058.97;;;-2.16;71.78
65546;BME280;52177;55.968;37.498;2023-02-15T00:06:27;100053.72;;;-2.16;71.53
65546;BME280;52177;55.968;37.498;2023-02-15T00:06:58;100055.25;;;-2.12;71.53
65546;BME280;52177;55.968;37.498;2023-02-15T00:07:28;100061.31;;;-2.11;71.57
65546;BME280;52177;55.968;37.498;2023-02-15T00:07:59;100057.88;;;-2.12;71.58
65546;BME280;52177;55.968;37.498;2023-02-15T00:08:29;100061.41;;;-2.13;71.65
65546;BME280;52177;55.968;37.498;2023-02-15T00:09:00;100059.56;;;-2.10;71.62
65546;BME280;52177;55.968;37.498;2023-02-15T00:09:30;100063.84;;;-2.09;71.61
65546;BME280;52177;55.968;37.498;2023-02-15T00:10:01;100063.91;;;-2.11;71.59
65546;BME280;52177;55.968;37.498;2023-02-15T00:10:31;100056.84;;;-2.09;71.44
65546;BME280;52177;55.968;37.498;2023-02-15T00:11:06;100061.16;;;-2.08;71.50
65546;BME280;52177;55.968;37.498;2023-02-15T00:11:37;100057.69;;;-2.08;71.49
65546;BME280;52177;55.968;37.498;2023-02-15T00:12:10;100057.78;;;-2.10;71.46
65546;BME280;52177;55.968;37.498;2023-02-15T00:12:41;100063.00;;;-2.10;71.57
65546;BME280;52177;55.968;37.498;2023-02-15T00:13:11;100054.34;;;-2.10;71.50
65546;BME280;52177;55.968;37.498;2023-02-15T00:13:42;100068.31;;;-2.12;71.49
65546;BME280;52177;55.968;37.498;2023-02-15T00:14:15;100061.31;;;-2.11;71.49
65546;BME280;52177;55.968;37.498;2023-02-15T00:14:47;100062.44;;;-2.15;71.63
65546;BME280;52177;55.968;37.498;2023-02-15T00:15:17;100067.56;;;-2.14;71.62
65546;BME280;52177;55.968;37.498;2023-02-15T00:15:48;100062.34;;;-2.14;71.67
65546;BME280;52177;55.968;37.498;2023-02-15T00:16:18;100062.50;;;-2.17;71.84
65546;BME280;52177;55.968;37.498;2023-02-15T00:16:51;100059.13;;;-2.19;71.83
65546;BME280;52177;55.968;37.498;2023-02-15T00:17:21;100064.28;;;-2.17;71.97
65546;BME280;52177;55.968;37.498;2023-02-15T00:17:52;100061.75;;;-2.19;71.94
65546;BME280;52177;55.968;37.498;2023-02-15T00:18:22;100059.97;;;-2.18;71.94
65546;BME280;52177;55.968;37.498;2023-02-15T00:18:53;100060.66;;;-2.15;72.07
65546;BME280;52177;55.968;37.498;2023-02-15T00:19:23;100057.22;;;-2.15;71.94
65546;BME280;52177;55.968;37.498;2023-02-15T00:19:53;100055.44;;;-2.15;71.89
65546;BME280;52177;55.968;37.498;2023-02-15T00:20:24;100050.22;;;-2.15;71.76
65546;BME280;52177;55.968;37.498;2023-02-15T00:20:54;100061.31;;;-2.11;71.63
65546;BME280;52177;55.968;37.498;2023-02-15T00:21:25;100063.19;;;-2.13;71.67
65546;BME280;52177;55.968;37.498;2023-02-15T00:21:55;100057.22;;;-2.15;71.81
65546;BME280;52177;55.968;37.498;2023-02-15T00:22:26;100060.72;;;-2.16;71.81
65546;BME280;52177;55.968;37.498;2023-02-15T00:22:56;100058.06;;;-2.15;71.98
65546;BME280;52177;55.968;37.498;2023-02-15T00:23:27;100059.06;;;-2.17;71.74
65546;BME280;52177;55.968;37.498;2023-02-15T00:23:59;100057.56;;;-2.21;71.78
65546;BME280;52177;55.968;37.498;2023-02-15T00:24:30;100059.22;;;-2.20;71.89
65546;BME280;52177;55.968;37.498;2023-02-15T00:25:00;100053.84;;;-2.17;71.86
65546;BME280;52177;55.968;37.498;2023-02-15T00:25:31;100058.13;;;-2.16;71.72
65546;BME280;52177;55.968;37.498;2023-02-15T00:26:09;100059.13;;;-2.19;71.77
65546;BME280;52177;55.968;37.498;2023-02-15T00:26:41;100060.16;;;-2.21;71.96
65546;BME280;52177;55.968;37.498;2023-02-15T00:27:12;100062.84;;;-2.23;71.91
65546;BME280;52177;55.968;37.498;2023-02-15T00:27:42;100062.84;;;-2.23;71.94
65546;BME280;52177;55.968;37.498;2023-02-15T00:28:13;100057.88;;;-2.27;71.97
65546;BME280;52177;55.968;37.498;2023-02-15T00:28:43;100062.25;;;-2.28;72.09
65546;BME280;52177;55.968;37.498;2023-02-15T00:29:15;100057.81;;;-2.26;72.04
65546;BME280;52177;55.968;37.498;2023-02-15T00:29:46;100060.41;;;-2.26;72.11
65546;BME280;52177;55.968;37.498;2023-02-15T00:30:17;100058.56;;;-2.24;72.07
65546;BME280;52177;55.968;37.498;2023-02-15T00:30:47;100053.16;;;-2.21;71.98
65546;BME280;52177;55.968;37.498;2023-02-15T00:31:18;100061.81;;;-2.20;71.92
65546;BME280;52177;55.968;37.498;2023-02-15T00:31:49;100059.22;;;-2.20;72.08
65546;BME280;52177;55.968;37.498;2023-02-15T00:32:19;100065.31;;;-2.20;72.04
65546;BME280;52177;55.968;37.498;2023-02-15T00:32:50;100053.28;;;-2.22;72.03
65546;BME280;52177;55.968;37.498;2023-02-15T00:33:20;100061.19;;;-2.24;71.98
65546;BME280;52177;55.968;37.498;2023-02-15T00:33:51;100062.00;;;-2.23;71.96
65546;BME280;52177;55.968;37.498;2023-02-15T00:34:24;100063.03;;;-2.26;72.02
65546;BME280;52177;55.968;37.498;2023-02-15T00:34:54;100058.56;;;-2.24;71.92
65546;BME280;52177;55.968;37.498;2023-02-15T00:35:25;100063.78;;;-2.24;72.00
65546;BME280;52177;55.968;37.498;2023-02-15T00:35:57;100064.69;;;-2.25;71.91
65546;BME280;52177;55.968;37.498;2023-02-15T00:36:27;100069.84;;;-2.23;72.09
65546;BME280;52177;55.968;37.498;2023-02-15T00:36:58;100054.25;;;-2.25;71.93
65546;BME280;52177;55.968;37.498;2023-02-15T00:37:28;100052.16;;;-2.18;71.85
65546;BME280;52177;55.968;37.498;2023-02-15T00:37:58;100048.00;;;-2.06;71.33
65546;BME280;52177;55.968;37.498;2023-02-15T00:38:30;100062.19;;;-2.10;71.07
65546;BME280;52177;55.968;37.498;2023-02-15T00:39:00;100060.59;;;-2.13;71.05
65546;BME280;52177;55.968;37.498;2023-02-15T00:39:31;100058.97;;;-2.16;71.04
65546;BME280;52177;55.968;37.498;2023-02-15T00:40:01;100061.56;;;-2.16;71.25
65546;BME280;52177;55.968;37.498;2023-02-15T00:40:32;100057.28;;;-2.17;71.12
65546;BME280;52177;55.968;37.498;2023-02-15T00:41:04;100068.06;;;-2.23;71.05
65546;BME280;52177;55.968;37.498;2023-02-15T00:41:35;100059.47;;;-2.25;71.23
65546;BME280;52177;55.968;37.498;2023-02-15T00:42:06;100061.25;;;-2.25;71.12
65546;BME280;52177;55.968;37.498;2023-02-15T00:42:36;100065.56;;;-2.24;71.19
65546;BME280;52177;55.968;37.498;2023-02-15T00:43:07;100056.72;;;-2.22;71.31
65546;BME280;52177;55.968;37.498;2023-02-15T00:43:37;100053.91;;;-2.19;71.07
65546;BME280;52177;55.968;37.498;2023-02-15T00:44:08;100060.84;;;-2.18;70.89
65546;BME280;52177;55.968;37.498;2023-02-15T00:44:38;100058.38;;;-2.21;70.78
65546;BME280;52177;55.968;37.498;2023-02-15T00:45:09;100059.97;;;-2.18;70.93
65546;BME280;52177;55.968;37.498;2023-02-15T00:45:39;100056.72;;;-2.22;70.79
65546;BME280;52177;55.968;37.498;2023-02-15T00:46:10;100064.81;;;-2.26;70.74
65546;BME280;52177;55.968;37.498;2023-02-15T00:46:40;100069.19;;;-2.27;70.98
65546;BME280;52177;55.968;37.498;2023-02-15T00:47:11;100058.63;;;-2.25;70.87
65546;BME280;52177;55.968;37.498;2023-02-15T00:47:41;100070.03;;;-2.26;70.95
65546;BME280;52177;55.968;37.498;2023-02-15T00:48:12;100063.28;;;-2.30;71.08
65546;BME280;52177;55.968;37.498;2023-02-15T00:48:42;100061.63;;;-2.31;71.03
65546;BME280;52177;55.968;37.498;2023-02-15T00:49:13;100069.19;;;-2.27;71.16
65546;BME280;52177;55.968;37.498;2023-02-15T00:49:43;100065.63;;;-2.26;71.14
65546;BME280;52177;55.968;37.498;2023-02-15T00:50:13;100067.16;;;-2.22;70.86
65546;BME280;52177;55.968;37.498;2023-02-15T00:50:52;100066.22;;;-2.21;70.77
65546;BME280;52177;55.968;37.498;2023-02-15T00:51:24;100073.28;;;-2.23;70.79
65546;BME280;52177;55.968;37.498;2023-02-15T00:51:54;100070.03;;;-2.26;70.92
65546;BME280;52177;55.968;37.498;2023-02-15T00:52:24;100078.78;;;-2.27;70.92
65546;BME280;52177;55.968;37.498;2023-02-15T00:52:55;100078.94;;;-2.30;71.02
65546;BME280;52177;55.968;37.498;2023-02-15T00:53:26;100069.44;;;-2.31;71.12
65546;BME280;52177;55.968;37.498;2023-02-15T00:53:57;100072.97;;;-2.33;71.25
65546;BME280;52177;55.968;37.498;2023-02-15T00:54:28;100070.47;;;-2.34;71.25
65546;BME280;52177;55.968;37.498;2023-02-15T00:54:58;100073.91;;;-2.34;71.28
65546;BME280;52177;55.968;37.498;2023-02-15T00:55:28;100069.34;;;-2.30;71.23
65546;BME280;52177;55.968;37.498;2023-02-15T00:55:59;100065.81;;;-2.29;71.17
65546;BME280;52177;55.968;37.498;2023-02-15T00:56:29;100069.91;;;-2.25;71.07
65546;BME280;52177;55.968;37.498;2023-02-15T00:57:00;100068.94;;;-2.22;70.95
65546;BME280;52177;55.968;37.498;2023-02-15T00:57:30;100076.91;;;-2.25;70.82
65546;BME280;52177;55.968;37.498;2023-02-15T00:58:01;100077.84;;;-2.26;70.81
65546;BME280;52177;55.968;37.498;2023-02-15T00:58:31;100076.34;;;-2.30;70.85
65546;BME280;52177;55.968;37.498;2023-02-15T00:59:02;100080.53;;;-2.28;70.99
65546;BME280;52177;55.968;37.498;2023-02-15T00:59:32;100073.66;;;-2.29;70.74
65546;BME280;52177;55.968;37.498;2023-02-15T01:00:03;100077.09;;;-2.28;70.75
65546;BME280;52177;55.968;37.498;2023-02-15T01:00:35;100070.69;;;-2.23;70.60
65546;BME280;52177;55.968;37.498;2023-02-15T01:01:10;100068.06;;;-2.23;70.40
65546;BME280;52177;55.968;37.498;2023-02-15T01:01:41;100082.13;;;-2.25;70.20
65546;BME280;52177;55.968;37.498;2023-02-15T01:02:11;100071.69;;;-2.25;70.41
65546;BME280;52177;55.968;37.498;2023-02-15T01:02:42;100066.31;;;-2.22;70.49
65546;BME280;52177;55.968;37.498;2023-02-15T01:03:14;100075.00;;;-2.22;70.37
65546;BME280;52177;55.968;37.498;2023-02-15T01:03:45;100078.44;;;-2.21;70.30
65546;BME280;52177;55.968;37.498;2023-02-15T01:04:16;100080.09;;;-2.20;70.26
65546;BME280;52177;55.968;37.498;2023-02-15T01:04:47;100080.28;;;-2.23;70.34
65546;BME280;52177;55.968;37.498;2023-02-15T01:05:17;100086.34;;;-2.23;70.31
65546;BME280;52177;55.968;37.498;2023-02-15T01:05:49;100075.06;;;-2.23;70.16
65546;BME280;52177;55.968;37.498;2023-02-15T01:06:19;100081.31;;;-2.26;70.21
65546;BME280;52177;55.968;37.498;2023-02-15T01:06:50;100086.59;;;-2.27;70.26
65546;BME280;52177;55.968;37.498;2023-02-15T01:07:20;100081.50;;;-2.29;70.48
65546;BME280;52177;55.968;37.498;2023-02-15T01:07:50;100074.41;;;-2.27;70.51
65546;BME280;52177;55.968;37.498;2023-02-15T01:08:21;100077.59;;;-2.22;70.47
65546;BME280;52177;55.968;37.498;2023-02-15T01:08:51;100073.28;;;-2.23;70.41
65546;BME280;52177;55.968;37.498;2023-02-15T01:09:22;100079.47;;;-2.24;70.36
65546;BME280;52177;55.968;37.498;2023-02-15T01:09:52;100083.84;;;-2.24;70.37
65546;BME280;52177;55.968;37.498;2023-02-15T01:10:23;100084.84;;;-2.27;70.37
65546;BME280;52177;55.968;37.498;2023-02-15T01:10:53;100080.66;;;-2.29;70.42
65546;BME280;52177;55.968;37.498;2023-02-15T01:11:24;100079.63;;;-2.27;70.71
65546;BME280;52177;55.968;37.498;2023-02-15T01:11:54;100079.47;;;-2.24;70.50
65546;BME280;52177;55.968;37.498;2023-02-15T01:12:25;100081.13;;;-2.23;70.43
65546;BME280;52177;55.968;37.498;2023-02-15T01:12:56;100072.38;;;-2.22;70.36
65546;BME280;52177;55.968;37.498;2023-02-15T01:13:27;100079.19;;;-2.19;70.29
65546;BME280;52177;55.968;37.498;2023-02-15T01:13:58;100079.97;;;-2.17;70.28
65546;BME280;52177;55.968;37.498;2023-02-15T01:14:28;100076.66;;;-2.21;70.13
65546;BME280;52177;55.968;37.498;2023-02-15T01:14:59;100087.94;;;-2.20;70.18
65546;BME280;52177;55.968;37.498;2023-02-15T01:15:30;100079.28;;;-2.21;70.20
65546;BME280;52177;55.968;37.498;2023-02-15T01:16:00;100088.19;;;-2.25;70.39
65546;BME280;52177;55.968;37.498;2023-02-15T01:16:31;100082.31;;;-2.28;70.48
65546;BME280;52177;55.968;37.498;2023-02-15T01:17:01;100083.34;;;-2.31;70.44
65546;BME280;52177;55.968;37.498;2023-02-15T01:17:32;100079.03;;;-2.32;70.52
65546;BME280;52177;55.968;37.498;2023-02-15T01:18:02;100077.19;;;-2.30;70.58
65546;BME280;52177;55.968;37.498;2023-02-15T01:18:34;100076.34;;;-2.30;70.64
65546;BME280;52177;55.968;37.498;2023-02-15T01:19:04;100081.63;;;-2.32;70.47
65546;BME280;52177;55.968;37.498;2023-02-15T01:19:35;100083.50;;;-2.34;70.47
65546;BME280;52177;55.968;37.498;2023-02-15T01:20:06;100082.66;;;-2.35;70.37
65546;BME280;52177;55.968;37.498;2023-02-15T01:20:39;100090.59;;;-2.36;70.41
65546;BME280;52177;55.968;37.498;2023-02-15T01:21:22;100079.19;;;-2.35;70.63
65546;BME280;52177;55.968;37.498;2023-02-15T01:21:53;100086.38;;;-2.39;70.39
65546;BME280;52177;55.968;37.498;2023-02-15T01:22:23;100085.50;;;-2.39;70.14
65546;BME280;52177;55.968;37.498;2023-02-15T01:22:54;100081.06;;;-2.37;70.51
65546;BME280;52177;55.968;37.498;2023-02-15T01:23:26;100078.19;;;-2.33;70.47
65546;BME280;52177;55.968;37.498;2023-02-15T01:23:56;100088.56;;;-2.31;70.34
65546;BME280;52177;55.968;37.498;2023-02-15T01:24:27;100081.56;;;-2.30;70.40
65546;BME280;52177;55.968;37.498;2023-02-15T01:24:57;100080.81;;;-2.33;70.35
65546;BME280;52177;55.968;37.498;2023-02-15T01:25:27;100082.31;;;-2.28;70.26
65546;BME280;52177;55.968;37.498;2023-02-15T01:26:01;100082.13;;;-2.25;70.10
65546;BME280;52177;55.968;37.498;2023-02-15T01:26:32;100082.31;;;-2.28;69.91
65546;BME280;52177;55.968;37.498;2023-02-15T01:27:02;100085.00;;;-2.30;69.89
65546;BME280;52177;55.968;37.498;2023-02-15T01:27:33;100083.41;;;-2.33;69.68
65546;BME280;52177;55.968;37.498;2023-02-15T01:28:03;100086.13;;;-2.34;69.69
65546;BME280;52177;55.968;37.498;2023-02-15T01:28:34;100080.03;;;-2.35;69.91
65546;BME280;52177;55.968;37.498;2023-02-15T01:29:05;100080.97;;;-2.36;70.00
65546;BME280;52177;55.968;37.498;2023-02-15T01:29:35;100077.53;;;-2.36;69.85
65546;BME280;52177;55.968;37.498;2023-02-15T01:30:06;100077.53;;;-2.36;69.75
65546;BME280;52177;55.968;37.498;2023-02-15T01:30:37;100082.91;;;-2.39;69.42
65546;BME280;52177;55.968;37.498;2023-02-15T01:31:09;100076.78;;;-2.38;69.65
65546;BME280;52177;55.968;37.498;2023-02-15T01:31:40;100087.88;;;-2.35;69.64
65546;BME280;52177;55.968;37.498;2023-02-15T01:32:10;100087.09;;;-2.37;69.60
65546;BME280;52177;55.968;37.498;2023-02-15T01:32:42;100081.81;;;-2.35;69.63
65546;BME280;52177;55.968;37.498;2023-02-15T01:33:12;100083.66;;;-2.37;69.63
65546;BME280;52177;55.968;37.498;2023-02-15T01:33:47;100081.88;;;-2.37;69.62
65546;BME280;52177;55.968;37.498;2023-02-15T01:34:18;100089.00;;;-2.39;69.52
65546;BME280;52177;55.968;37.498;2023-02-15T01:34:48;100082.00;;;-2.38;69.62
65546;BME280;52177;55.968;37.498;2023-02-15T01:35:19;100081.88;;;-2.37;69.64
65546;BME280;52177;55.968;37.498;2023-02-15T01:35:56;100087.78;;;-2.33;69.53
65546;BME280;52177;55.968;37.498;2023-02-15T01:36:26;100081.81;;;-2.35;69.19
65546;BME280;52177;55.968;37.498;2023-02-15T01:36:56;100081.88;;;-2.37;69.13
65546;BME280;52177;55.968;37.498;2023-02-15T01:37:27;100083.66;;;-2.37;69.25
65546;BME280;52177;55.968;37.498;2023-02-15T01:37:57;100082.00;;;-2.38;69.42
65546;BME280;52177;55.968;37.498;2023-02-15T01:38:28;100082.00;;;-2.38;69.48
65546;BME280;52177;55.968;37.498;2023-02-15T01:39:00;100080.22;;;-2.38;69.55
65546;BME280;52177;55.968;37.498;2023-02-15T01:39:30;100083.66;;;-2.37;69.38
65546;BME280;52177;55.968;37.498;2023-02-15T01:40:04;100087.97;;;-2.36;69.31
65546;BME280;52177;55.968;37.498;2023-02-15T01:40:35;100083.66;;;-2.37;69.29
65546;BME280;52177;55.968;37.498;2023-02-15T01:41:05;100085.19;;;-2.33;69.39
65546;BME280;52177;55.968;37.498;2023-02-15T01:41:54;100091.59;;;-2.39;68.97
65546;BME280;52177;55.968;37.498;2023-02-15T01:42:24;100097.81;;;-2.41;68.98
65546;BME280;52177;55.968;37.498;2023-02-15T01:42:55;100090.91;;;-2.42;69.20
65546;BME280;52177;55.968;37.498;2023-02-15T01:43:42;100090.84;;;-2.41;69.35
65546;BME280;52177;55.968;37.498;2023-02-15T01:45:23;100087.38;;;-2.41;69.26
65546;BME280;52177;55.968;37.498;2023-02-15T01:45:54;100095.97;;;-2.39;69.22
65546;BME280;52177;55.968;37.498;2023-02-15T01:46:40;100086.38;;;-2.39;69.19
65546;BME280;52177;55.968;37.498;2023-02-15T01:47:39;100092.69;;;-2.43;68.94
65546;BME280;52177;55.968;37.498;2023-02-15T01:48:22;100080.28;;;-2.39;68.94
65546;BME280;52177;55.968;37.498;2023-02-15T01:49:03;100083.84;;;-2.40;68.44
65546;BME280;52177;55.968;37.498;2023-02-15T01:49:35;100086.28;;;-2.37;68.66
65546;BME280;52177;55.968;37.498;2023-02-15T01:50:16;100094.09;;;-2.37;68.39
65546;BME280;52177;55.968;37.498;2023-02-15T01:50:59;100093.28;;;-2.38;68.28
65546;BME280;52177;55.968;37.498;2023-02-15T01:51:34;100094.09;;;-2.37;68.39
65546;BME280;52177;55.968;37.498;2023-02-15T01:52:06;100098.41;;;-2.36;68.24
65546;BME280;52177;55.968;37.498;2023-02-15T01:52:50;100101.09;;;-2.38;68.05
65546;BME280;52177;55.968;37.498;2023-02-15T01:53:40;100096.91;;;-2.40;68.08
65546;BME280;52177;55.968;37.498;2023-02-15T01:54:20;100088.31;;;-2.42;67.92
65546;BME280;52177;55.968;37.498;2023-02-15T01:54:51;100095.31;;;-2.43;67.99
65546;BME280;52177;55.968;37.498;2023-02-15T01:55:25;100098.66;;;-2.41;67.88
65546;BME280;52177;55.968;37.498;2023-02-15T01:56:09;100097.97;;;-2.44;67.99
65546;BME280;52177;55.968;37.498;2023-02-15T01:56:42;100092.00;;;-2.46;68.04
65546;BME280;52177;55.968;37.498;2023-02-15T01:57:17;100102.38;;;-2.45;68.12
65546;BME280;52177;55.968;37.498;2023-02-15T01:57:49;100106.81;;;-2.47;68.13
65546;BME280;52177;55.968;37.498;2023-02-15T01:58:21;100094.72;;;-2.48;68.24
65546;BME280;52177;55.968;37.498;2023-02-15T01:58:54;100099.94;;;-2.48;68.25
65546;BME280;52177;55.968;37.498;2023-02-15T01:59:25;100100.00;;;-2.49;68.40
65546;BME280;52177;55.968;37.498;2023-02-15T01:59:58;100099.41;;;-2.55;68.12
65546;BME280;52177;55.968;37.498;2023-02-15T02:00:30;100097.72;;;-2.56;68.40
65546;BME280;52177;55.968;37.498;2023-02-15T02:01:02;100093.44;;;-2.57;68.39
65546;BME280;52177;55.968;37.498;2023-02-15T02:01:34;100089.63;;;-2.51;68.32
65546;BME280;52177;55.968;37.498;2023-02-15T02:02:07;100095.63;;;-2.49;67.95
65546;BME280;52177;55.968;37.498;2023-02-15T02:02:42;100092.00;;;-2.46;68.31
65546;BME280;52177;55.968;37.498;2023-02-15T02:03:14;100106.91;;;-2.48;68.22
65546;BME280;52177;55.968;37.498;2023-02-15T02:04:10;100097.41;;;-2.49;68.21
65546;BME280;52177;55.968;37.498;2023-02-15T02:04:51;100096.47;;;-2.48;68.32
65546;BME280;52177;55.968;37.498;2023-02-15T02:05:23;100094.88;;;-2.51;68.22
65546;BME280;52177;55.968;37.498;2023-02-15T02:05:53;100100.09;;;-2.51;68.27
65546;BME280;52177;55.968;37.498;2023-02-15T02:06:25;100093.84;;;-2.48;68.23
65546;BME280;52177;55.968;37.498;2023-02-15T02:06:57;100094.63;;;-2.46;67.72
65546;BME280;52177;55.968;37.498;2023-02-15T02:07:28;100089.38;;;-2.46;67.70
65546;BME280;52177;55.968;37.498;2023-02-15T02:08:02;100092.00;;;-2.46;67.65
65546;BME280;52177;55.968;37.498;2023-02-15T02:08:33;100104.22;;;-2.47;67.58
65546;BME280;52177;55.968;37.498;2023-02-15T02:09:03;100100.78;;;-2.47;67.57
65546;BME280;52177;55.968;37.498;2023-02-15T02:09:35;100098.66;;;-2.41;67.69
65546;BME280;52177;55.968;37.498;2023-02-15T02:10:07;100100.53;;;-2.43;67.47
65546;BME280;52177;55.968;37.498;2023-02-15T02:10:38;100103.38;;;-2.47;67.56
65546;BME280;52177;55.968;37.498;2023-02-15T02:11:11;100105.06;;;-2.46;67.68
65546;BME280;52177;55.968;37.498;2023-02-15T02:11:44;100111.22;;;-2.47;67.62
65546;BME280;52177;55.968;37.498;2023-02-15T02:12:17;100108.69;;;-2.49;67.78
65546;BME280;52177;55.968;37.498;2023-02-15T02:12:51;100108.78;;;-2.50;67.90
65546;BME280;52177;55.968;37.498;2023-02-15T02:13:22;100099.19;;;-2.50;67.82
65546;BME280;52177;55.968;37.498;2023-02-15T02:13:54;100104.41;;;-2.50;67.93
65546;BME280;52177;55.968;37.498;2023-02-15T02:14:25;100107.16;;;-2.53;67.96
65546;BME280;52177;55.968;37.498;2023-02-15T02:14:56;100109.75;;;-2.53;68.09
65546;BME280;52177;55.968;37.498;2023-02-15T02:17:22;100105.41;;;-2.52;67.74
65546;BME280;52177;55.968;37.498;2023-02-15T02:18:03;100109.75;;;-2.53;67.90
65546;BME280;52177;55.968;37.498;2023-02-15T02:18:53;100103.63;;;-2.52;67.89
65546;BME280;52177;55.968;37.498;2023-02-15T02:20:52;100102.63;;;-2.49;67.73
65546;BME280;52177;55.968;37.498;2023-02-15T02:31:59;100116.00;;;-2.56;67.60
65546;BME280;52177;55.968;37.498;2023-02-15T02:34:47;100119.97;;;-2.64;67.36
65546;BME280;52177;55.968;37.498;2023-02-15T02:36:22;100119.34;;;-2.69;67.52
65546;BME280;52177;55.968;37.498;2023-02-15T02:37:37;100121.03;;;-2.68;67.70
65546;BME280;52177;55.968;37.498;2023-02-15T02:38:29;100118.50;;;-2.70;67.66
65546;BME280;52177;55.968;37.498;2023-02-15T02:40:48;100124.00;;;-2.59;67.20
65546;BME280;52177;55.968;37.498;2023-02-15T02:42:12;100138.88;;;-2.61;66.97
65546;BME280;52177;55.968;37.498;2023-02-15T02:44:49;100127.03;;;-2.66;67.08
65546;BME280;52177;55.968;37.498;2023-02-15T02:45:29;100128.63;;;-2.64;67.05
65546;BME280;52177;55.968;37.498;2023-02-15T02:46:08;100134.00;;;-2.67;67.25
65546;BME280;52177;55.968;37.498;2023-02-15T02:46:48;100132.91;;;-2.63;66.86
65546;BME280;52177;55.968;37.498;2023-02-15T02:47:30;100132.13;;;-2.65;66.90
65546;BME280;52177;55.968;37.498;2023-02-15T02:48:13;100133.25;;;-2.69;67.05
65546;BME280;52177;55.968;37.498;2023-02-15T02:48:45;100130.78;;;-2.72;67.29
65546;BME280;52177;55.968;37.498;2023-02-15T02:49:16;100128.94;;;-2.70;67.35
65546;BME280;52177;55.968;37.498;2023-02-15T02:49:46;100132.13;;;-2.65;67.22
65546;BME280;52177;55.968;37.498;2023-02-15T02:50:28;100133.06;;;-2.66;67.09
65546;BME280;52177;55.968;37.498;2023-02-15T02:50:59;100130.47;;;-2.66;67.24
65546;BME280;52177;55.968;37.498;2023-02-15T02:51:30;100137.47;;;-2.66;67.35
65546;BME280;52177;55.968;37.498;2023-02-15T02:52:06;100130.63;;;-2.69;67.40
65546;BME280;52177;55.968;37.498;2023-02-15T02:52:48;100131.56;;;-2.70;67.54
65546;BME280;52177;55.968;37.498;2023-02-15T02:53:19;100139.38;;;-2.70;67.59
65546;BME280;52177;55.968;37.498;2023-02-15T02:54:01;100141.31;;;-2.73;67.72
65546;BME280;52177;55.968;37.498;2023-02-15T02:54:35;100140.56;;;-2.76;67.76
65546;BME280;52177;55.968;37.498;2023-02-15T02:55:13;100134.56;;;-2.78;67.84
65546;BME280;52177;55.968;37.498;2023-02-15T02:55:49;100140.56;;;-2.76;67.93
65546;BME280;52177;55.968;37.498;2023-02-15T02:56:28;100143.94;;;-2.73;68.02
65546;BME280;52177;55.968;37.498;2023-02-15T02:57:03;100141.06;;;-2.69;67.84
65546;BME280;52177;55.968;37.498;2023-02-15T02:57:37;100139.31;;;-2.68;67.77
65546;BME280;52177;55.968;37.498;2023-02-15T02:58:31;100139.53;;;-2.73;67.82
65546;BME280;52177;55.968;37.498;2023-02-15T02:59:42;100140.31;;;-2.71;68.12
65546;BME280;52177;55.968;37.498;2023-02-15T03:00:15;100137.78;;;-2.72;67.96
65546;BME280;52177;55.968;37.498;2023-02-15T03:00:56;100136.94;;;-2.73;68.15
65546;BME280;52177;55.968;37.498;2023-02-15T03:01:32;100143.25;;;-2.77;68.15
65546;BME280;52177;55.968;37.498;2023-02-15T03:02:13;100140.63;;;-2.77;68.04
65546;BME280;52177;55.968;37.498;2023-02-15T03:02:47;100142.41;;;-2.78;68.11
65546;BME280;52177;55.968;37.498;2023-02-15T03:03:34;100134.50;;;-2.76;68.47
65546;BME280;52177;55.968;37.498;2023-02-15T03:04:19;100141.41;;;-2.75;68.36
65546;BME280;52177;55.968;37.498;2023-02-15T03:04:55;100136.09;;;-2.73;68.16
65546;BME280;52177;55.968;37.498;2023-02-15T03:05:29;100141.31;;;-2.73;68.26
65546;BME280;52177;55.968;37.498;2023-02-15T03:06:06;100144.00;;;-2.75;68.16
65546;BME280;52177;55.968;37.498;2023-02-15T03:06:45;100144.84;;;-2.74;68.46
65546;BME280;52177;55.968;37.498;2023-02-15T03:07:19;100147.56;;;-2.76;68.29
65546;BME280;52177;55.968;37.498;2023-02-15T03:07:56;100145.19;;;-2.81;68.63
65546;BME280;52177;55.968;37.498;2023-02-15T03:08:37;100148.69;;;-2.82;68.73
65546;BME280;52177;55.968;37.498;2023-02-15T03:09:14;100146.25;;;-2.85;68.97
65546;BME280;52177;55.968;37.498;2023-02-15T03:09:49;100149.03;;;-2.88;68.92
65546;BME280;52177;55.968;37.498;2023-02-15T03:10:23;100150.94;;;-2.91;69.19
65546;BME280;52177;55.968;37.498;2023-02-15T03:10:57;100150.09;;;-2.92;69.22
65546;BME280;52177;55.968;37.498;2023-02-15T03:11:29;100148.28;;;-2.90;69.33
65546;BME280;52177;55.968;37.498;2023-02-15T03:12:01;100145.56;;;-2.88;69.34
65546;BME280;52177;55.968;37.498;2023-02-15T03:12:39;100142.88;;;-2.87;69.30
65546;BME280;52177;55.968;37.498;2023-02-15T03:13:10;100143.47;;;-2.82;69.22
65546;BME280;52177;55.968;37.498;2023-02-15T03:13:41;100148.56;;;-2.79;69.16
65546;BME280;52177;55.968;37.498;2023-02-15T03:14:15;100151.16;;;-2.79;69.05